Corvallis Municipal Airport Corvallis US
ICAO: KCVO
IATA: CVO
Category: Medium
Scheduled Services: No

Elevation: 250 ft
TransAlt. 18000 ft.

Airport Communications:
CASCADE APP/DEP:127.5
AWOS 3:135.775
CTAF/UNICOM:123

KCVO Zoom In..

Runways:

(A) RW 09 length 3545 ft width 75 ft
---- / hdg 94

(B) RW 17 length 5900 ft width 150 ft
ILS 111.90 / hdg 169

(C) RW 27 length 3545 ft width 75 ft
---- / hdg 274

(D) RW 35 length 5900 ft width 150 ft
---- / hdg 349

Location; KCVO
Day. 24 / Time. 12.56 Zulu
* Altimeter: 30.04
* Temperature: 12° c. 53.6°f.
* Wind from: 290° Speed 04 kn.
Dewpoint: 10° c.
Visibility: 10 Statute Miles.
Clouds: Overcast 2200 ft.

KCVO 241256Z AUTO 29004KT 10SM OVC022 12/10 A3004 RMK AO2 SLP173 T01220100


Wind From 290°
Speed 04 kn.

 
 
jpsmedia.com for Web Design SOUNDCLOUD worldairports.se 2018   terms of use